Matlacha Isles, Florida
Current Conditions -  °F | °C
As of 4:53 AM on Friday 21 Nov 2014 (Local Time) from KFMY Reporting Station
Overcast Overcast  
Wind Chill: 62°   Ceiling: 7500
Heat Index: 62°   Visibility: 10mi
Dew Point: 54°   Wind: 7mph
Humidity: 75%   Direction: 30°NNE
Pressure: 30.14"   Gusts: NA
Location:  26.63°N, 82.015°W
Report Text: KFMY 210953Z AUTO 03006KT 10SM OVC075 17/12 A3014 RMK AO2 SLP207 T01670122
Loading
Personal Weather Stations






























Interactive Weather Map New forecast layout! Learn more

10-Day Weather Forecast

Advertisements
Track Severe Weather on mobile